Hlavní strana
METAR-TAF:

METAR-TAF

Letiště :

Kirkenes, Norsko

zeměpisná šířka: 69-44N, zeměpisná délka: 029-54E, výška: 9 m

Aktuální stav počasí

Zpráva byla vytvořena před 32 minutami, v 07:50 UTC
Severní vítr 3 kt
Teplota 7°C
Vlhkost vzduchu 66%
Tlak 1017 hPa
Viditelnost 10 km a více
Žádná oblačnost pod 1500 m, nevyskytují se cumulonimby.

METAR: ENKR 260750Z 36003KT CAVOK 07/01 Q1017 RMK WIND 731FT 34005KT

Čas: 10:22 (08:22 UTC)

Předpověď počasí

Zpráva byla vytvořena před 3 hodinami a 22 minutami, v 05:00 UTC
Předpověď platná od 26 v 06 UTC do 26 v 15 UTC
Severoseverozápadní vítr 8 kt
Viditelnost 10 km a více
Polojasno ve výšce 3000 ft

TAF: ENKR 260500Z 2606/2615 34008KT 9999 SCT030

Stav a předpovědi počasí z více než 4 000 letišť (zprávy METAR a TAF).

Červené a žluté tečky na mapě představují dostupné meteorologické stanice.

Když kurzor umístíte na tečku, zobrazí se název stanice.

Pak kliknutím zobrazíte stav a předpověď počasí.

Chcete-li změnit mapu, kliknutím na zelené tlačítko se znaménkem +mapu přiblížíte, kliknutím na zelené tlačítko se znaménkem – mapu oddálíte a kliknutím na zelené šipky přejdete na sousední mapy.


METAR-TAF: